This is the latest recevied weather packets stored in our database for station/object N2VSB-13. If no packets are shown the sender has not sent any weather packets the latest 10 day(s).
| Time | Temp. | Humidity | Pressure | Rain* | Wind** | Luminosity | Snow |
|---|---|---|---|---|---|---|---|
| 1777925117 | 21.11° C | 37% | 1005.9 hPa | 0 mm | - | 120 W/m² | - |
| 1777924517 | 21.11° C | 37% | 1006.1 hPa | 0 mm | - | 313 W/m² | - |
| 1777923318 | 21.67° C | 37% | 1006.2 hPa | 0 mm | - | 218 W/m² | - |
| 1777921518 | 21.11° C | 37% | 1006.3 hPa | 0 mm | - | 402 W/m² | - |
| 1777917919 | 20.56° C | 38% | 1006.5 hPa | 0 mm | - | 321 W/m² | - |
| 1777916120 | 21.11° C | 39% | 1006.8 hPa | 0 mm | - | 624 W/m² | - |
| 1777906520 | 16.11° C | 48% | 1008.4 hPa | 0 mm | - | 578 W/m² | - |
| 1777904737 | 14.44° C | 52% | 1008.8 hPa | 0 mm | - | 614 W/m² | - |
| 1777901118 | 12.78° C | 56% | 1009 hPa | 0 mm | - | 171 W/m² | - |
| 1777896316 | 10° C | 63% | 1009.5 hPa | 0 mm | - | 89 W/m² | - |
| 1777891518 | 7.78° C | 72% | 1009.7 hPa | 0 mm | - | 43 W/m² | - |
| 1777890918 | 7.78° C | 72% | 1009.7 hPa | 0 mm | - | 26 W/m² | - |
| 1777888539 | 7.22° C | 72% | 1009.5 hPa | 0 mm | - | 4 W/m² | - |
| 1777885519 | 7.22° C | 72% | 1009.5 hPa | 0 mm | - | 0 W/m² | - |
| 1777884320 | 6.67° C | 72% | 1009.5 hPa | 0 mm | - | 0 W/m² | - |
| 1777881317 | 7.78° C | 72% | 1009.9 hPa | 0 mm | - | 0 W/m² | - |
| 1777876519 | 7.78° C | 72% | 1009.8 hPa | 0 mm | - | 0 W/m² | - |
| 1777874120 | 8.33° C | 70% | 1009.9 hPa | 0 mm | - | 0 W/m² | - |
| 1777869318 | 6.67° C | 70% | 1010.8 hPa | 0 mm | - | 0 W/m² | - |
| 1777866319 | 6.11° C | 72% | 1010.6 hPa | 0 mm | - | 0 W/m² | - |
| 1777862720 | 6.67° C | 65% | 1010.1 hPa | 0 mm | - | 0 W/m² | - |
| 1777855519 | 10.56° C | 44% | 1009.8 hPa | 0 mm | - | 0 W/m² | - |
| 1777853717 | 11.11° C | 40% | 1009.3 hPa | 0 mm | - | 0 W/m² | - |
| 1777851917 | 12.22° C | 37% | 1009 hPa | 0 mm | - | 7 W/m² | - |
| 1777845919 | 13.89° C | 31% | 1008.2 hPa | 0 mm | - | 150 W/m² | - |
* Rain latest hour (hover to see other rain measurements)
** Current wind speed in m/s (hover to see current wind gust speed)